createdAt,value
2019-03-18T00:01:46.665Z,72.60
2019-03-18T00:04:12.848Z,72.39
2019-03-18T00:06:40.055Z,72.74
2019-03-18T00:09:06.263Z,72.36
2019-03-18T00:11:33.475Z,72.27
2019-03-18T00:13:59.592Z,72.54
2019-03-18T00:16:25.667Z,72.81
2019-03-18T00:18:52.014Z,72.76
2019-03-18T00:21:18.166Z,72.58
2019-03-18T00:23:44.227Z,72.48
2019-03-18T00:26:10.357Z,72.47
2019-03-18T00:28:36.426Z,72.49
2019-03-18T00:31:02.562Z,72.45
2019-03-18T00:33:29.726Z,72.52
2019-03-18T00:35:55.902Z,72.40
2019-03-18T00:38:22.009Z,72.55
2019-03-18T00:40:48.113Z,72.42
2019-03-18T00:43:14.216Z,72.79
2019-03-18T00:45:40.574Z,72.76
2019-03-18T00:48:06.696Z,72.93
2019-03-18T00:50:32.790Z,73.08
2019-03-18T00:52:59.179Z,72.98
2019-03-18T00:55:25.243Z,73.08
2019-03-18T00:57:51.449Z,73.06
2019-03-18T01:00:18.049Z,73.00
2019-03-18T01:02:44.254Z,73.25
2019-03-18T01:05:10.841Z,73.04
2019-03-18T01:07:38.228Z,73.05
2019-03-18T01:10:08.132Z,72.91
2019-03-18T01:12:34.440Z,73.15
2019-03-18T01:15:00.511Z,72.99
2019-03-18T01:17:26.724Z,72.87
2019-03-18T01:19:52.818Z,72.91
2019-03-18T01:22:18.981Z,73.21
2019-03-18T01:24:46.148Z,72.86
2019-03-18T01:27:12.345Z,73.11
2019-03-18T01:29:38.443Z,72.78
2019-03-18T01:32:04.506Z,72.98
2019-03-18T01:34:30.635Z,73.29
2019-03-18T01:36:57.487Z,73.12
2019-03-18T01:39:23.574Z,72.88
2019-03-18T01:41:49.804Z,72.83
2019-03-18T01:44:17.033Z,72.95
2019-03-18T01:46:43.129Z,73.19
2019-03-18T01:49:09.222Z,73.29
2019-03-18T01:51:35.324Z,72.99
2019-03-18T01:54:01.376Z,72.73
2019-03-18T01:56:27.502Z,72.80
2019-03-18T01:58:53.654Z,72.99
2019-03-18T02:01:19.767Z,72.62
2019-03-18T02:03:45.843Z,72.44
2019-03-18T02:06:12.131Z,72.44
2019-03-18T02:08:38.189Z,72.50
2019-03-18T02:11:04.301Z,72.13
2019-03-18T02:13:30.374Z,72.42
2019-03-18T02:15:56.464Z,72.64
2019-03-18T02:18:22.561Z,72.20
2019-03-18T02:20:48.669Z,72.43
2019-03-18T02:23:14.731Z,72.14
2019-03-18T02:25:40.803Z,72.47
2019-03-18T02:28:06.935Z,72.20
2019-03-18T02:30:33.222Z,72.53
2019-03-18T02:32:59.414Z,72.72
2019-03-18T02:35:25.520Z,72.48
2019-03-18T02:37:51.616Z,72.54
2019-03-18T02:40:17.675Z,73.01
2019-03-18T02:42:43.872Z,72.75
2019-03-18T02:45:10.141Z,72.62
2019-03-18T02:47:36.212Z,72.87
2019-03-18T02:50:03.816Z,73.07
2019-03-18T02:52:29.856Z,73.13
2019-03-18T02:54:55.964Z,73.45
2019-03-18T02:57:22.046Z,73.55
2019-03-18T02:59:48.219Z,73.55
2019-03-18T03:02:14.467Z,74.52
2019-03-18T03:04:40.595Z,74.82
2019-03-18T03:07:06.796Z,75.85
2019-03-18T03:09:33.959Z,76.39
2019-03-18T03:12:00.036Z,76.99
2019-03-18T03:14:26.124Z,76.89
2019-03-18T03:16:52.220Z,77.69
2019-03-18T03:19:18.315Z,78.39
2019-03-18T03:21:44.473Z,77.95
2019-03-18T03:24:10.567Z,77.59
2019-03-18T03:26:36.686Z,78.60
2019-03-18T03:29:02.860Z,78.28
2019-03-18T03:31:28.965Z,78.54
2019-03-18T03:33:55.027Z,79.37
2019-03-18T03:36:22.328Z,79.05
2019-03-18T03:38:48.441Z,78.99
2019-03-18T03:41:17.672Z,79.32
2019-03-18T03:43:42.507Z,79.43
2019-03-18T03:46:09.688Z,79.36
2019-03-18T03:48:35.814Z,79.43
2019-03-18T03:51:01.877Z,79.26
2019-03-18T03:53:30.999Z,79.21
2019-03-18T03:55:56.120Z,79.73
2019-03-18T03:58:22.376Z,79.51
2019-03-18T04:00:48.994Z,79.04
2019-03-18T04:03:15.154Z,79.25
2019-03-18T04:05:41.360Z,79.17
2019-03-18T04:08:07.622Z,79.35
2019-03-18T04:10:33.686Z,79.13
2019-03-18T04:12:59.884Z,78.70
2019-03-18T04:15:26.059Z,78.61
2019-03-18T04:17:52.253Z,78.44
2019-03-18T04:20:18.424Z,79.09
2019-03-18T04:22:44.642Z,78.95
2019-03-18T04:25:10.899Z,79.13
2019-03-18T04:27:36.977Z,78.83
2019-03-18T04:30:15.403Z,79.07
2019-03-18T04:32:41.586Z,78.98
2019-03-18T04:35:07.958Z,79.00
2019-03-18T04:37:34.076Z,78.96
2019-03-18T04:40:00.279Z,79.05
2019-03-18T04:42:26.446Z,78.81
2019-03-18T04:44:52.529Z,79.07
2019-03-18T04:47:18.609Z,79.35
2019-03-18T04:49:44.729Z,79.62
2019-03-18T04:52:10.795Z,79.56
2019-03-18T04:54:36.870Z,79.11
2019-03-18T04:57:03.110Z,79.26
2019-03-18T04:59:29.211Z,79.11
2019-03-18T05:01:55.349Z,78.90
2019-03-18T05:04:21.477Z,78.86
2019-03-18T05:06:47.581Z,78.75
2019-03-18T05:09:13.742Z,78.96
2019-03-18T05:11:39.965Z,79.00
2019-03-18T05:14:06.030Z,79.37
2019-03-18T05:16:32.129Z,79.01
2019-03-18T05:18:58.202Z,79.14
2019-03-18T05:21:24.359Z,79.04
2019-03-18T05:23:52.339Z,78.87
2019-03-18T05:26:18.400Z,79.06
2019-03-18T05:28:44.507Z,79.20
2019-03-18T05:31:10.607Z,79.00
2019-03-18T05:33:36.877Z,78.98
2019-03-18T05:36:02.994Z,79.13
2019-03-18T05:38:29.102Z,78.94
2019-03-18T05:40:55.224Z,78.84
2019-03-18T05:43:21.314Z,78.89
2019-03-18T05:45:47.457Z,78.99
2019-03-18T05:48:13.529Z,78.82
2019-03-18T05:50:39.730Z,78.95
2019-03-18T05:53:05.846Z,78.82
2019-03-18T05:55:31.939Z,78.88
2019-03-18T05:57:58.141Z,78.94
2019-03-18T06:00:24.213Z,78.72
2019-03-18T06:02:50.312Z,78.77
2019-03-18T06:05:16.510Z,78.96
2019-03-18T06:07:43.737Z,79.04
2019-03-18T06:10:11.245Z,79.38
2019-03-18T06:12:37.336Z,79.00
2019-03-18T06:15:06.418Z,79.07
2019-03-18T06:17:33.643Z,79.29
2019-03-18T06:19:59.738Z,78.84
2019-03-18T06:22:25.846Z,78.44
2019-03-18T06:24:51.948Z,78.38
2019-03-18T06:27:18.058Z,78.34
2019-03-18T06:29:44.185Z,78.23
2019-03-18T06:32:10.508Z,78.34
2019-03-18T06:34:36.616Z,78.40
2019-03-18T06:37:02.986Z,78.39
2019-03-18T06:39:29.090Z,78.36
2019-03-18T06:41:55.302Z,78.35
2019-03-18T06:44:21.488Z,78.38
2019-03-18T06:46:47.602Z,77.99
2019-03-18T06:49:13.678Z,77.81
2019-03-18T06:51:39.803Z,77.71
2019-03-18T06:54:05.886Z,77.90
2019-03-18T06:56:32.057Z,78.25
2019-03-18T06:58:58.240Z,78.67
2019-03-18T07:01:24.564Z,77.66
2019-03-18T07:03:50.692Z,77.66
2019-03-18T07:06:16.757Z,77.14
2019-03-18T07:08:42.897Z,76.69
2019-03-18T07:11:08.996Z,75.89
2019-03-18T07:13:35.109Z,75.89
2019-03-18T07:16:01.205Z,75.98
2019-03-18T07:18:27.422Z,75.69
2019-03-18T07:20:54.626Z,75.83
2019-03-18T07:23:20.730Z,76.19
2019-03-18T07:25:47.724Z,76.01
2019-03-18T07:28:13.826Z,76.14
2019-03-18T07:30:39.942Z,75.58
2019-03-18T07:33:06.116Z,75.76
2019-03-18T07:35:32.248Z,75.69
2019-03-18T07:37:58.469Z,75.48
2019-03-18T07:40:24.667Z,75.53
2019-03-18T07:42:50.757Z,76.03
2019-03-18T07:45:16.978Z,75.17
2019-03-18T07:47:43.156Z,74.96
2019-03-18T07:50:13.273Z,76.22
2019-03-18T07:52:39.478Z,75.64
2019-03-18T07:55:06.868Z,75.33
2019-03-18T07:57:33.096Z,75.43
2019-03-18T07:59:59.184Z,75.56
2019-03-18T08:02:25.385Z,75.30
2019-03-18T08:04:51.478Z,76.06
2019-03-18T08:07:17.651Z,75.27
2019-03-18T08:09:43.736Z,75.26
2019-03-18T08:12:09.851Z,74.95
2019-03-18T08:14:35.944Z,75.71
2019-03-18T08:17:02.242Z,74.65
2019-03-18T08:19:28.464Z,73.67
2019-03-18T08:21:54.562Z,72.99
2019-03-18T08:24:20.675Z,72.71
2019-03-18T08:26:46.860Z,72.72
2019-03-18T08:29:13.005Z,73.49
2019-03-18T08:31:39.095Z,72.91
2019-03-18T08:34:05.292Z,73.54
2019-03-18T08:36:31.435Z,72.67
2019-03-18T08:38:57.553Z,72.00
2019-03-18T08:41:23.889Z,69.61
2019-03-18T08:43:50.113Z,70.56
2019-03-18T08:46:16.270Z,70.08
2019-03-18T08:48:55.123Z,69.31
2019-03-18T08:51:10.500Z,69.97
2019-03-18T08:53:36.581Z,67.78
2019-03-18T08:56:02.895Z,69.91
2019-03-18T08:58:29.085Z,68.54
2019-03-18T09:00:55.382Z,69.43
2019-03-18T09:03:21.451Z,70.03
2019-03-18T09:05:47.565Z,69.68
2019-03-18T09:08:13.680Z,71.74
2019-03-18T09:10:39.739Z,69.65
2019-03-18T09:13:05.878Z,68.87
2019-03-18T09:15:31.979Z,69.28
2019-03-18T09:17:58.454Z,66.80
2019-03-18T09:20:24.547Z,68.18
2019-03-18T09:22:50.723Z,68.57
2019-03-18T09:25:16.930Z,67.77
2019-03-18T09:27:43.015Z,69.03
2019-03-18T09:30:17.240Z,67.96
2019-03-18T09:32:43.351Z,67.44
2019-03-18T09:35:09.683Z,67.69
2019-03-18T09:37:36.053Z,66.97
2019-03-18T09:40:04.761Z,66.59
2019-03-18T09:42:30.824Z,66.44
2019-03-18T09:44:56.967Z,67.69
2019-03-18T09:47:23.177Z,67.44
2019-03-18T09:49:49.353Z,68.26
2019-03-18T09:52:15.461Z,64.95
2019-03-18T09:54:41.685Z,64.28
2019-03-18T09:57:07.865Z,63.72
2019-03-18T09:59:34.068Z,63.24
2019-03-18T10:02:00.160Z,64.24
2019-03-18T10:04:26.277Z,65.80
2019-03-18T10:06:52.350Z,63.56
2019-03-18T10:09:18.594Z,62.50
2019-03-18T10:11:44.930Z,60.80
2019-03-18T10:14:11.020Z,61.31
2019-03-18T10:16:37.136Z,61.94
2019-03-18T10:19:03.434Z,61.19
2019-03-18T10:21:29.671Z,60.72
2019-03-18T10:23:55.762Z,61.42
2019-03-18T10:26:21.897Z,63.30
2019-03-18T10:28:48.149Z,58.12
2019-03-18T10:31:14.236Z,59.75
2019-03-18T10:33:40.524Z,59.80
2019-03-18T10:36:06.811Z,56.97
2019-03-18T10:38:32.921Z,59.68
2019-03-18T10:40:59.783Z,56.72
2019-03-18T10:43:26.237Z,59.30
2019-03-18T10:45:52.409Z,56.72
2019-03-18T10:48:18.616Z,55.54
2019-03-18T10:50:44.705Z,57.33
2019-03-18T10:53:11.029Z,57.12
2019-03-18T10:55:37.255Z,57.57
2019-03-18T10:58:03.567Z,56.38
2019-03-18T11:00:29.660Z,54.18
2019-03-18T11:02:55.851Z,55.97
2019-03-18T11:05:22.079Z,55.67
2019-03-18T11:07:48.296Z,55.73
2019-03-18T11:10:14.769Z,54.14
2019-03-18T11:12:41.083Z,54.23
2019-03-18T11:15:10.209Z,53.51
2019-03-18T11:17:36.277Z,53.68
2019-03-18T11:20:05.292Z,54.24
2019-03-18T11:22:31.541Z,49.95
2019-03-18T11:24:57.726Z,49.70
2019-03-18T11:27:23.834Z,48.86
2019-03-18T11:29:50.148Z,49.46
2019-03-18T11:32:16.327Z,49.55
2019-03-18T11:34:42.530Z,49.05
2019-03-18T11:37:08.784Z,50.15
2019-03-18T11:39:34.983Z,53.21
2019-03-18T11:42:01.164Z,53.11
2019-03-18T11:44:27.355Z,51.69
2019-03-18T11:46:53.670Z,49.54
2019-03-18T11:49:20.097Z,51.47
2019-03-18T11:51:46.330Z,52.10
2019-03-18T11:54:12.543Z,57.51
2019-03-18T11:56:38.844Z,61.58
2019-03-18T11:59:05.196Z,62.66
2019-03-18T12:01:31.360Z,63.57
2019-03-18T12:03:57.549Z,64.78
2019-03-18T12:06:23.669Z,65.13
2019-03-18T12:08:50.098Z,65.17
2019-03-18T12:11:16.322Z,64.85
2019-03-18T12:13:42.467Z,63.52
2019-03-18T12:16:08.657Z,64.17
2019-03-18T12:18:34.849Z,62.22
2019-03-18T12:21:01.186Z,62.44
2019-03-18T12:23:27.388Z,63.48
2019-03-18T12:25:53.592Z,63.63
2019-03-18T12:28:19.829Z,66.06
2019-03-18T12:30:46.079Z,66.71
2019-03-18T12:33:12.303Z,66.25
2019-03-18T12:35:38.468Z,67.96
2019-03-18T12:38:04.666Z,64.31
2019-03-18T12:40:30.899Z,64.13
2019-03-18T12:42:57.202Z,63.66
2019-03-18T12:45:23.541Z,64.75
2019-03-18T12:47:49.854Z,62.02
2019-03-18T12:50:38.676Z,61.21
2019-03-18T12:52:50.940Z,63.49
2019-03-18T12:55:17.275Z,63.09
2019-03-18T12:57:43.599Z,61.81
2019-03-18T13:00:16.226Z,61.52
2019-03-18T13:02:42.600Z,62.51
2019-03-18T13:05:09.349Z,61.78
2019-03-18T13:07:35.642Z,60.64
2019-03-18T13:10:05.852Z,59.98
2019-03-18T13:12:32.136Z,59.00
2019-03-18T13:14:58.257Z,56.30
2019-03-18T13:17:24.376Z,54.83
2019-03-18T13:19:50.580Z,56.91
2019-03-18T13:22:16.806Z,53.99
2019-03-18T13:24:43.159Z,54.85
2019-03-18T13:27:09.351Z,53.07
2019-03-18T13:29:35.458Z,55.32
2019-03-18T13:32:01.631Z,54.24
2019-03-18T13:34:27.874Z,55.66
2019-03-18T13:36:54.164Z,56.50
2019-03-18T13:39:20.348Z,55.39
2019-03-18T13:41:46.450Z,56.64
2019-03-18T13:44:12.789Z,57.72
2019-03-18T13:46:38.966Z,58.41
2019-03-18T13:49:05.208Z,60.40
2019-03-18T13:51:31.454Z,61.21
2019-03-18T13:53:57.623Z,63.01
2019-03-18T13:56:23.871Z,63.23
2019-03-18T13:58:49.974Z,62.94
2019-03-18T14:01:16.296Z,65.89
2019-03-18T14:03:42.392Z,64.63
2019-03-18T14:06:08.998Z,63.81
2019-03-18T14:08:35.244Z,62.15
2019-03-18T14:11:02.819Z,62.31
2019-03-18T14:13:29.169Z,60.84
2019-03-18T14:15:55.387Z,61.52
2019-03-18T14:18:22.792Z,61.70
2019-03-18T14:20:49.047Z,63.48
2019-03-18T14:23:15.232Z,61.25
2019-03-18T14:25:41.575Z,62.80
2019-03-18T14:28:07.731Z,60.66
2019-03-18T14:30:34.026Z,61.04
2019-03-18T14:33:00.261Z,61.30
2019-03-18T14:35:26.337Z,59.51
2019-03-18T14:37:52.560Z,60.01
2019-03-18T14:40:19.738Z,59.02
2019-03-18T14:42:46.020Z,58.70
2019-03-18T14:45:17.321Z,58.19
2019-03-18T14:47:43.557Z,55.99
2019-03-18T14:50:11.057Z,56.36
2019-03-18T14:52:37.135Z,56.57
2019-03-18T14:55:06.264Z,58.32
2019-03-18T14:57:32.358Z,56.42
2019-03-18T14:59:58.516Z,57.99
2019-03-18T15:02:24.794Z,56.94
2019-03-18T15:04:51.139Z,56.98
2019-03-18T15:07:17.234Z,55.42
2019-03-18T15:09:43.382Z,57.10
2019-03-18T15:12:09.693Z,56.73
2019-03-18T15:14:35.927Z,56.17
2019-03-18T15:17:02.106Z,56.33
2019-03-18T15:19:28.298Z,55.19
2019-03-18T15:21:58.751Z,54.04
2019-03-18T15:24:22.625Z,55.81
2019-03-18T15:26:48.889Z,51.96
2019-03-18T15:29:15.078Z,52.18
2019-03-18T15:31:41.811Z,51.42
2019-03-18T15:34:09.239Z,52.93
2019-03-18T15:36:35.364Z,53.24
2019-03-18T15:39:01.755Z,51.93
2019-03-18T15:41:28.107Z,51.95
2019-03-18T15:43:54.337Z,52.29
2019-03-18T15:46:20.677Z,51.83
2019-03-18T15:48:47.123Z,51.35
2019-03-18T15:51:13.454Z,52.05
2019-03-18T15:53:39.579Z,51.05
2019-03-18T15:56:05.741Z,53.02
2019-03-18T15:58:31.837Z,51.49
2019-03-18T16:00:57.958Z,49.79
2019-03-18T16:03:24.079Z,49.80
2019-03-18T16:05:50.266Z,51.70
2019-03-18T16:08:16.611Z,52.96
2019-03-18T16:10:42.972Z,52.04
2019-03-18T16:13:09.195Z,52.56
2019-03-18T16:15:35.442Z,52.09
2019-03-18T16:18:01.630Z,53.57
2019-03-18T16:20:27.725Z,53.17
2019-03-18T16:22:53.935Z,53.72
2019-03-18T16:25:20.443Z,53.82
2019-03-18T16:27:46.701Z,53.54
2019-03-18T16:30:20.502Z,54.92
2019-03-18T16:32:46.947Z,55.87
2019-03-18T16:35:15.890Z,54.60
2019-03-18T16:37:42.151Z,56.02
2019-03-18T16:40:10.678Z,56.12
2019-03-18T16:42:37.003Z,56.00
2019-03-18T16:45:06.629Z,57.15
2019-03-18T16:47:32.785Z,56.75
2019-03-18T16:49:59.009Z,57.58
2019-03-18T16:52:35.246Z,57.66
2019-03-18T16:54:53.439Z,57.45
2019-03-18T16:57:19.564Z,59.45
2019-03-18T16:59:46.945Z,59.90
2019-03-18T17:02:13.070Z,59.51
2019-03-18T17:04:39.266Z,60.19
2019-03-18T17:07:05.412Z,60.48
2019-03-18T17:09:31.696Z,59.65
2019-03-18T17:11:58.003Z,61.68
2019-03-18T17:14:24.128Z,60.99
2019-03-18T17:16:50.256Z,60.29
2019-03-18T17:19:16.676Z,60.73
2019-03-18T17:21:42.899Z,60.84
2019-03-18T17:24:09.031Z,61.46
2019-03-18T17:26:35.352Z,60.43
2019-03-18T17:29:01.674Z,61.14
2019-03-18T17:31:27.908Z,60.93
2019-03-18T17:33:54.145Z,61.91
2019-03-18T17:36:20.517Z,62.11
2019-03-18T17:38:47.705Z,62.25
2019-03-18T17:41:13.906Z,62.39
2019-03-18T17:43:40.005Z,63.23
2019-03-18T17:46:06.292Z,63.02
2019-03-18T17:48:32.531Z,63.51
2019-03-18T17:50:58.942Z,63.72
2019-03-18T17:53:25.060Z,63.78
2019-03-18T17:55:51.409Z,63.61
2019-03-18T17:58:17.637Z,63.51
2019-03-18T18:00:45.960Z,64.12
2019-03-18T18:03:12.104Z,64.52
2019-03-18T18:05:38.339Z,65.15
2019-03-18T18:08:04.689Z,65.74
2019-03-18T18:10:31.970Z,64.03
2019-03-18T18:12:58.178Z,63.99
2019-03-18T18:15:24.619Z,63.30
2019-03-18T18:17:50.911Z,62.77
2019-03-18T18:20:17.143Z,62.90
2019-03-18T18:22:43.414Z,62.19
2019-03-18T18:25:11.061Z,62.71
2019-03-18T18:27:37.257Z,61.39
2019-03-18T18:30:06.886Z,61.70
2019-03-18T18:32:33.303Z,62.38
2019-03-18T18:34:59.614Z,62.06
2019-03-18T18:37:26.783Z,61.68
2019-03-18T18:39:52.878Z,61.38
2019-03-18T18:42:19.128Z,61.52
2019-03-18T18:44:45.228Z,62.14
2019-03-18T18:47:11.523Z,61.87
2019-03-18T18:49:37.909Z,62.34
2019-03-18T18:52:04.211Z,62.62
2019-03-18T18:54:30.566Z,62.45
2019-03-18T18:56:56.784Z,62.69
2019-03-18T18:59:23.205Z,62.85
2019-03-18T19:01:50.670Z,63.34
2019-03-18T19:04:17.217Z,64.57
2019-03-18T19:06:43.352Z,64.15
2019-03-18T19:09:09.506Z,64.33
2019-03-18T19:11:35.689Z,64.70
2019-03-18T19:14:01.927Z,65.51
2019-03-18T19:16:28.399Z,65.36
2019-03-18T19:18:54.455Z,65.48
2019-03-18T19:21:20.650Z,65.93
2019-03-18T19:23:46.872Z,66.21
2019-03-18T19:26:13.091Z,65.68
2019-03-18T19:28:39.357Z,66.20
2019-03-18T19:31:05.464Z,66.53
2019-03-18T19:33:31.781Z,66.47
2019-03-18T19:35:58.209Z,66.28
2019-03-18T19:38:24.324Z,66.45
2019-03-18T19:40:50.419Z,66.41
2019-03-18T19:43:16.611Z,66.02
2019-03-18T19:45:43.125Z,66.16
2019-03-18T19:48:09.336Z,65.84
2019-03-18T19:50:35.452Z,65.86
2019-03-18T19:53:01.716Z,65.95
2019-03-18T19:55:28.039Z,66.01
2019-03-18T19:57:54.273Z,66.64
2019-03-18T20:00:22.858Z,67.28
2019-03-18T20:02:49.332Z,67.68
2019-03-18T20:05:18.648Z,67.81
2019-03-18T20:07:43.727Z,68.08
2019-03-18T20:10:15.550Z,68.14
2019-03-18T20:12:41.752Z,68.09
2019-03-18T20:15:10.664Z,68.04
2019-03-18T20:17:36.908Z,67.94
2019-03-18T20:20:06.880Z,68.11
2019-03-18T20:22:33.324Z,68.01
2019-03-18T20:24:59.658Z,68.49
2019-03-18T20:27:25.999Z,68.60
2019-03-18T20:29:52.312Z,68.35
2019-03-18T20:32:18.646Z,68.12
2019-03-18T20:34:44.933Z,68.55
2019-03-18T20:37:12.159Z,68.97
2019-03-18T20:39:39.461Z,68.70
2019-03-18T20:42:05.595Z,69.10
2019-03-18T20:44:31.768Z,69.30
2019-03-18T20:46:57.913Z,69.08
2019-03-18T20:49:24.106Z,69.10
2019-03-18T20:51:50.330Z,68.92
2019-03-18T20:54:16.623Z,69.24
2019-03-18T20:56:42.814Z,69.79
2019-03-18T20:59:09.063Z,69.61
2019-03-18T21:01:35.232Z,69.70
2019-03-18T21:04:01.453Z,69.03
2019-03-18T21:06:27.555Z,69.17
2019-03-18T21:08:54.894Z,69.29
2019-03-18T21:11:21.015Z,69.57
2019-03-18T21:13:56.753Z,70.04
2019-03-18T21:16:15.269Z,70.35
2019-03-18T21:18:43.912Z,70.08
2019-03-18T21:21:09.411Z,70.27
2019-03-18T21:23:36.546Z,70.17
2019-03-18T21:26:02.950Z,70.10
2019-03-18T21:28:29.179Z,70.37
2019-03-18T21:30:55.279Z,70.63
2019-03-18T21:33:21.551Z,70.87
2019-03-18T21:35:47.752Z,70.67
2019-03-18T21:38:13.858Z,70.16
2019-03-18T21:40:40.087Z,69.86
2019-03-18T21:43:06.304Z,69.90
2019-03-18T21:45:32.502Z,70.39
2019-03-18T21:47:58.803Z,70.26
2019-03-18T21:50:24.888Z,70.16
2019-03-18T21:52:52.220Z,70.81
2019-03-18T21:55:18.648Z,71.60
2019-03-18T21:57:45.022Z,71.91
2019-03-18T22:00:21.777Z,71.87
2019-03-18T22:02:48.091Z,72.04
2019-03-18T22:05:14.411Z,71.62
2019-03-18T22:07:40.721Z,71.71
2019-03-18T22:10:18.249Z,71.01
2019-03-18T22:12:45.341Z,71.04
2019-03-18T22:15:12.960Z,71.53
2019-03-18T22:17:39.380Z,72.46
2019-03-18T22:20:13.752Z,72.83
2019-03-18T22:22:39.965Z,72.83
2019-03-18T22:25:07.868Z,73.24
2019-03-18T22:27:34.072Z,72.92
2019-03-18T22:30:00.326Z,72.45
2019-03-18T22:32:26.446Z,72.17
2019-03-18T22:34:52.640Z,72.00
2019-03-18T22:37:18.861Z,72.41
2019-03-18T22:39:44.962Z,72.64
2019-03-18T22:42:11.052Z,72.66
2019-03-18T22:44:37.176Z,72.61
2019-03-18T22:47:03.484Z,72.62
2019-03-18T22:49:29.541Z,72.51
2019-03-18T22:51:55.651Z,71.95
2019-03-18T22:54:21.954Z,71.89
2019-03-18T22:56:48.041Z,72.59
2019-03-18T22:59:14.099Z,72.52
2019-03-18T23:01:40.332Z,72.26
2019-03-18T23:04:06.424Z,71.94
2019-03-18T23:06:32.766Z,72.37
2019-03-18T23:08:58.992Z,73.07
2019-03-18T23:11:25.104Z,73.54
2019-03-18T23:13:51.519Z,73.50
2019-03-18T23:16:19.538Z,73.23
2019-03-18T23:18:45.732Z,72.51
2019-03-18T23:21:13.052Z,72.25
2019-03-18T23:23:39.153Z,72.37
2019-03-18T23:26:05.360Z,72.14
2019-03-18T23:28:32.676Z,72.41
2019-03-18T23:30:58.999Z,72.92
2019-03-18T23:33:25.079Z,72.84
2019-03-18T23:35:51.414Z,73.02
2019-03-18T23:38:17.648Z,73.54
2019-03-18T23:40:44.828Z,73.53
2019-03-18T23:43:10.937Z,73.87
2019-03-18T23:45:37.135Z,73.35
2019-03-18T23:48:03.615Z,73.45
2019-03-18T23:50:29.665Z,73.93
2019-03-18T23:52:55.757Z,73.55
2019-03-18T23:55:21.929Z,73.75
2019-03-18T23:57:48.119Z,73.95
